Time;durP1;ratioP1;P1;durP2;ratioP2;P2;SDS_P1;SDS_P2;PMS_P1;PMS_P2;Temp;Humidity;BMP_temperature;BMP_pressure;BME280_temperature;BME280_humidity;BME280_pressure;Samples;Min_cycle;Max_cycle;Signal;HPM_P1;HPM_P2
2022/01/09 00:02:25;;;;;;;5.35;4.85;;;;;;;;;;5088215;28;20043;-59
2022/01/09 00:04:51;;;;;;;5.88;5.00;;;;;;;;;;5087090;28;20036;-59
2022/01/09 00:07:17;;;;;;;6.25;5.50;;;;;;;;;;5086501;28;20418;-61
2022/01/09 00:09:44;;;;;;;5.75;5.15;;;;;;;;;;5087997;28;20384;-60
2022/01/09 00:12:11;;;;;;;5.95;5.32;;;;;;;;;;5089716;28;20095;-60
2022/01/09 00:14:37;;;;;;;6.50;5.90;;;;;;;;;;5086327;28;20407;-61
2022/01/09 00:17:03;;;;;;;7.03;6.07;;;;;;;;;;5088418;28;20036;-60
2022/01/09 00:19:29;;;;;;;6.97;5.72;;;;;;;;;;5086966;28;20114;-60
2022/01/09 00:21:55;;;;;;;6.78;5.60;;;;;;;;;;5088437;28;20399;-60
2022/01/09 00:24:21;;;;;;;6.32;5.72;;;;;;;;;;5086819;28;20491;-58
2022/01/09 00:26:47;;;;;;;7.53;5.90;;;;;;;;;;5089379;28;20032;-60
2022/01/09 00:29:13;;;;;;;5.70;5.10;;;;;;;;;;5088670;28;20383;-61
2022/01/09 00:31:39;;;;;;;7.75;5.72;;;;;;;;;;5087480;28;20126;-60
2022/01/09 00:34:06;;;;;;;6.47;5.60;;;;;;;;;;5085917;28;20062;-59
2022/01/09 00:36:32;;;;;;;7.78;6.32;;;;;;;;;;5086307;28;20490;-60
2022/01/09 00:38:58;;;;;;;7.25;5.63;;;;;;;;;;5089210;28;20052;-60
2022/01/09 00:41:24;;;;;;;6.93;5.75;;;;;;;;;;5087702;28;20510;-60
2022/01/09 00:43:50;;;;;;;5.72;5.10;;;;;;;;;;5087111;28;20038;-59
2022/01/09 00:46:17;;;;;;;7.38;5.18;;;;;;;;;;5086676;28;20067;-61
2022/01/09 00:48:43;;;;;;;7.03;5.15;;;;;;;;;;5086928;28;20054;-59
2022/01/09 00:51:09;;;;;;;9.43;5.03;;;;;;;;;;5086801;28;20040;-60
2022/01/09 00:53:35;;;;;;;5.55;4.82;;;;;;;;;;5085826;28;20086;-61
2022/01/09 00:56:01;;;;;;;5.85;4.50;;;;;;;;;;5087689;28;20031;-61
2022/01/09 00:58:27;;;;;;;5.43;4.78;;;;;;;;;;5087761;28;20158;-59
2022/01/09 01:00:54;;;;;;;5.75;5.20;;;;;;;;;;5086754;28;20123;-59
2022/01/09 01:03:20;;;;;;;5.40;4.38;;;;;;;;;;5086414;28;20925;-60
2022/01/09 01:05:46;;;;;;;5.68;4.93;;;;;;;;;;5087677;28;20036;-60
2022/01/09 01:08:12;;;;;;;5.53;4.97;;;;;;;;;;5087146;28;20036;-59
2022/01/09 01:10:38;;;;;;;7.20;4.72;;;;;;;;;;5086883;28;20046;-60
2022/01/09 01:13:04;;;;;;;6.43;5.32;;;;;;;;;;5087035;28;20052;-60
2022/01/09 01:15:31;;;;;;;5.18;4.68;;;;;;;;;;5083860;28;20052;-59
2022/01/09 01:17:57;;;;;;;7.13;5.65;;;;;;;;;;5087627;28;20040;-60
2022/01/09 01:20:23;;;;;;;5.40;4.90;;;;;;;;;;5088141;28;20036;-59
2022/01/09 01:22:51;;;;;;;5.50;5.00;;;;;;;;;;5088155;28;20043;-60
2022/01/09 01:25:18;;;;;;;6.93;5.03;;;;;;;;;;5087924;28;20085;-60
2022/01/09 01:27:44;;;;;;;6.10;5.18;;;;;;;;;;5086071;28;20546;-58
2022/01/09 01:30:10;;;;;;;6.05;5.45;;;;;;;;;;5086598;28;20040;-61
2022/01/09 01:32:36;;;;;;;6.80;5.95;;;;;;;;;;5087753;28;20409;-61
2022/01/09 01:35:03;;;;;;;7.60;6.57;;;;;;;;;;5085182;28;20051;-59
2022/01/09 01:37:29;;;;;;;7.82;6.15;;;;;;;;;;5088286;28;20039;-60
2022/01/09 01:39:55;;;;;;;7.00;5.78;;;;;;;;;;5086764;28;20073;-59
2022/01/09 01:42:21;;;;;;;6.88;6.00;;;;;;;;;;5086787;28;20043;-59
2022/01/09 01:44:48;;;;;;;8.10;6.47;;;;;;;;;;5087505;28;20036;-60
2022/01/09 01:47:15;;;;;;;7.65;6.50;;;;;;;;;;5087051;28;20380;-62
2022/01/09 01:49:42;;;;;;;8.85;6.63;;;;;;;;;;5087098;28;20063;-59
2022/01/09 01:52:08;;;;;;;6.63;5.70;;;;;;;;;;5086863;28;20147;-60
2022/01/09 01:54:34;;;;;;;6.72;5.93;;;;;;;;;;5088022;28;20551;-61
2022/01/09 01:57:01;;;;;;;6.63;5.50;;;;;;;;;;5086170;28;20137;-59
2022/01/09 01:59:27;;;;;;;6.43;5.00;;;;;;;;;;5087738;28;20119;-60
2022/01/09 02:01:53;;;;;;;7.32;5.00;;;;;;;;;;5087222;28;20032;-61
2022/01/09 02:04:19;;;;;;;5.35;4.53;;;;;;;;;;5090087;28;20094;-60
2022/01/09 02:06:45;;;;;;;7.03;5.03;;;;;;;;;;5092370;28;20421;-59
2022/01/09 02:09:11;;;;;;;4.97;4.43;;;;;;;;;;5090154;28;20151;-60
2022/01/09 02:11:37;;;;;;;6.78;4.63;;;;;;;;;;5090717;28;20040;-60
2022/01/09 02:14:04;;;;;;;5.70;4.45;;;;;;;;;;5090983;28;20047;-59
2022/01/09 02:16:30;;;;;;;4.63;4.13;;;;;;;;;;5090192;28;20036;-60
2022/01/09 02:18:58;;;;;;;6.65;4.80;;;;;;;;;;5090937;28;20128;-61
2022/01/09 02:21:26;;;;;;;8.85;4.18;;;;;;;;;;5090661;28;20101;-59
2022/01/09 02:23:52;;;;;;;4.50;3.58;;;;;;;;;;5092007;28;20078;-59
2022/01/09 02:26:19;;;;;;;8.15;3.08;;;;;;;;;;5088193;28;20040;-58
2022/01/09 02:28:45;;;;;;;8.02;2.75;;;;;;;;;;5089282;28;20048;-59
2022/01/09 02:31:11;;;;;;;7.00;2.80;;;;;;;;;;5091308;28;20062;-60
2022/01/09 02:33:37;;;;;;;9.55;2.35;;;;;;;;;;5091059;28;20046;-60
2022/01/09 02:36:04;;;;;;;10.82;2.35;;;;;;;;;;5092172;28;20454;-60
2022/01/09 02:38:30;;;;;;;13.55;3.13;;;;;;;;;;5090670;28;20122;-58
2022/01/09 02:40:56;;;;;;;7.70;1.83;;;;;;;;;;5091154;28;20406;-60
2022/01/09 02:43:22;;;;;;;12.85;3.15;;;;;;;;;;5090381;28;20031;-60
2022/01/09 02:45:54;;;;;;;8.55;1.60;;;;;;;;;;5091219;28;20032;-61
2022/01/09 02:48:21;;;;;;;20.90;2.25;;;;;;;;;;5091987;28;20040;-58
2022/01/09 02:51:11;;;;;;;16.23;2.38;;;;;;;;;;5089825;28;20039;-61
2022/01/09 02:53:38;;;;;;;16.55;2.35;;;;;;;;;;5089286;28;20450;-58
2022/01/09 02:56:05;;;;;;;15.73;2.55;;;;;;;;;;5090784;28;20039;-59
2022/01/09 02:58:32;;;;;;;15.77;2.30;;;;;;;;;;5090439;28;20055;-61
2022/01/09 03:00:58;;;;;;;8.57;1.88;;;;;;;;;;5089791;28;20036;-60
2022/01/09 03:03:24;;;;;;;15.23;2.63;;;;;;;;;;5091318;28;20036;-60
2022/01/09 03:05:50;;;;;;;20.60;2.85;;;;;;;;;;5089948;28;20039;-59
2022/01/09 03:08:16;;;;;;;20.33;2.90;;;;;;;;;;5089739;28;20040;-60
2022/01/09 03:10:42;;;;;;;17.45;2.30;;;;;;;;;;5089586;28;20039;-61
2022/01/09 03:13:09;;;;;;;23.02;3.15;;;;;;;;;;5088893;28;20044;-60
2022/01/09 03:15:35;;;;;;;20.58;2.70;;;;;;;;;;5088571;28;20483;-62
2022/01/09 03:18:01;;;;;;;22.10;3.40;;;;;;;;;;5088125;28;20046;-61
2022/01/09 03:20:28;;;;;;;31.00;4.75;;;;;;;;;;5090464;28;20072;-60
2022/01/09 03:22:57;;;;;;;23.58;3.20;;;;;;;;;;5089919;28;20042;-59
2022/01/09 03:25:24;;;;;;;19.17;3.75;;;;;;;;;;5089792;28;20032;-60
2022/01/09 03:27:50;;;;;;;27.67;4.13;;;;;;;;;;5089262;28;20549;-60
2022/01/09 03:30:17;;;;;;;30.38;3.45;;;;;;;;;;5088448;28;20081;-59
2022/01/09 03:32:43;;;;;;;31.55;4.85;;;;;;;;;;5088431;28;20051;-60
2022/01/09 03:35:11;;;;;;;33.70;3.50;;;;;;;;;;5087331;28;20052;-60
2022/01/09 03:37:37;;;;;;;36.00;5.00;;;;;;;;;;5087260;28;20486;-60
2022/01/09 03:40:04;;;;;;;34.25;3.38;;;;;;;;;;5089319;28;20085;-60
2022/01/09 03:42:30;;;;;;;34.95;5.60;;;;;;;;;;5088461;28;20482;-59
2022/01/09 03:44:56;;;;;;;25.13;3.40;;;;;;;;;;5089182;28;20036;-60
2022/01/09 03:47:22;;;;;;;33.05;3.78;;;;;;;;;;5087166;28;20050;-60
2022/01/09 03:49:50;;;;;;;36.90;4.75;;;;;;;;;;5088394;28;20035;-59
2022/01/09 03:52:16;;;;;;;37.72;5.20;;;;;;;;;;5088067;28;20043;-60
2022/01/09 03:54:42;;;;;;;36.95;4.43;;;;;;;;;;5088012;28;20039;-59
2022/01/09 03:57:08;;;;;;;28.25;3.90;;;;;;;;;;5087720;28;20533;-60
2022/01/09 03:59:34;;;;;;;29.08;4.43;;;;;;;;;;5086807;28;20076;-60
2022/01/09 04:02:01;;;;;;;32.50;4.00;;;;;;;;;;5088977;28;20070;-59
2022/01/09 04:04:27;;;;;;;30.40;3.83;;;;;;;;;;5086506;28;20063;-62
2022/01/09 04:06:53;;;;;;;22.50;3.65;;;;;;;;;;5089195;28;21839;-60
2022/01/09 04:09:39;;;;;;;24.85;3.92;;;;;;;;;;5085660;28;20036;-61
2022/01/09 04:12:14;;;;;;;23.42;3.40;;;;;;;;;;5088725;28;20044;-60
2022/01/09 04:14:40;;;;;;;35.50;4.25;;;;;;;;;;5087323;28;20118;-59
2022/01/09 04:17:09;;;;;;;24.20;3.28;;;;;;;;;;5084703;28;20486;-61
2022/01/09 04:19:35;;;;;;;29.02;3.65;;;;;;;;;;5087344;28;20452;-61
2022/01/09 04:22:01;;;;;;;29.13;3.67;;;;;;;;;;5087778;28;20044;-60
2022/01/09 04:24:27;;;;;;;21.27;3.72;;;;;;;;;;5088025;28;20039;-60
2022/01/09 04:26:53;;;;;;;21.85;3.38;;;;;;;;;;5088213;28;20036;-62
2022/01/09 04:29:19;;;;;;;25.00;3.08;;;;;;;;;;5088300;28;20553;-61
2022/01/09 04:31:45;;;;;;;26.75;3.20;;;;;;;;;;5087122;28;20082;-61
2022/01/09 04:34:11;;;;;;;24.73;4.07;;;;;;;;;;5085900;28;20060;-60
2022/01/09 04:36:37;;;;;;;28.58;3.30;;;;;;;;;;5087201;28;20119;-60
2022/01/09 04:39:04;;;;;;;20.40;3.35;;;;;;;;;;5085844;28;20044;-61
2022/01/09 04:41:30;;;;;;;24.52;3.15;;;;;;;;;;5087448;28;20044;-59
2022/01/09 04:43:56;;;;;;;25.88;2.88;;;;;;;;;;5085875;28;20079;-59
2022/01/09 04:46:29;;;;;;;20.80;2.95;;;;;;;;;;5087255;28;20122;-60
2022/01/09 04:48:56;;;;;;;24.33;2.88;;;;;;;;;;5083637;28;20078;-60
2022/01/09 04:51:22;;;;;;;21.27;4.07;;;;;;;;;;5085798;28;20051;-61
2022/01/09 04:53:48;;;;;;;16.50;2.40;;;;;;;;;;5087781;28;20060;-59
2022/01/09 04:56:14;;;;;;;17.67;2.22;;;;;;;;;;5088086;28;20131;-60
2022/01/09 04:58:40;;;;;;;16.13;2.30;;;;;;;;;;5087707;28;20035;-59
2022/01/09 05:01:06;;;;;;;16.17;2.00;;;;;;;;;;5085062;28;20059;-60
2022/01/09 05:03:32;;;;;;;15.50;2.38;;;;;;;;;;5085966;28;20036;-59
2022/01/09 05:05:58;;;;;;;10.95;1.92;;;;;;;;;;5087463;28;20117;-59
2022/01/09 05:08:24;;;;;;;13.70;1.83;;;;;;;;;;5086931;28;20093;-60
2022/01/09 05:10:50;;;;;;;14.13;1.90;;;;;;;;;;5086810;28;20394;-59
2022/01/09 05:13:16;;;;;;;14.90;2.30;;;;;;;;;;5087260;28;20035;-61
2022/01/09 05:15:42;;;;;;;17.77;2.58;;;;;;;;;;5087501;28;20048;-59
2022/01/09 05:18:14;;;;;;;23.45;3.20;;;;;;;;;;5085771;28;20486;-59
2022/01/09 05:20:40;;;;;;;11.95;1.83;;;;;;;;;;5088042;28;20043;-60
2022/01/09 05:23:06;;;;;;;14.90;2.60;;;;;;;;;;5088272;28;20036;-59
2022/01/09 05:25:32;;;;;;;14.82;2.05;;;;;;;;;;5086381;28;20043;-61
2022/01/09 05:27:58;;;;;;;17.52;2.35;;;;;;;;;;5087126;28;20071;-59
2022/01/09 05:30:24;;;;;;;19.98;2.53;;;;;;;;;;5085194;28;20071;-59
2022/01/09 05:32:50;;;;;;;12.38;2.28;;;;;;;;;;5087304;28;20044;-60
2022/01/09 05:35:16;;;;;;;22.58;2.78;;;;;;;;;;5086059;28;20506;-60
2022/01/09 05:37:42;;;;;;;19.98;2.03;;;;;;;;;;5086958;28;20048;-59
2022/01/09 05:40:09;;;;;;;21.15;2.65;;;;;;;;;;5087136;28;20035;-59
2022/01/09 05:42:35;;;;;;;21.10;2.90;;;;;;;;;;5086558;28;20067;-61
2022/01/09 05:45:02;;;;;;;18.48;2.55;;;;;;;;;;5087478;28;20192;-60
2022/01/09 05:47:28;;;;;;;17.48;2.40;;;;;;;;;;5086633;28;20040;-61
2022/01/09 05:49:54;;;;;;;16.20;2.53;;;;;;;;;;5087421;28;20436;-60
2022/01/09 05:52:20;;;;;;;16.05;2.35;;;;;;;;;;5085638;28;20047;-60
2022/01/09 05:54:48;;;;;;;18.33;1.80;;;;;;;;;;5087441;28;20040;-59
2022/01/09 05:57:14;;;;;;;19.10;3.15;;;;;;;;;;5086129;28;20092;-60
2022/01/09 05:59:40;;;;;;;15.45;2.17;;;;;;;;;;5086639;28;20040;-60
2022/01/09 06:02:07;;;;;;;14.18;2.80;;;;;;;;;;5085865;28;20169;-60
2022/01/09 06:04:33;;;;;;;15.00;2.30;;;;;;;;;;5085425;28;20388;-60
2022/01/09 06:06:59;;;;;;;15.65;1.70;;;;;;;;;;5083881;28;20048;-59
2022/01/09 06:09:25;;;;;;;14.57;3.28;;;;;;;;;;5086433;28;20039;-61
2022/01/09 06:11:51;;;;;;;16.55;2.63;;;;;;;;;;5085779;28;20048;-60
2022/01/09 06:14:17;;;;;;;11.32;1.80;;;;;;;;;;5084762;28;20044;-60
2022/01/09 06:16:43;;;;;;;17.13;2.00;;;;;;;;;;5087748;28;20067;-61
2022/01/09 06:19:10;;;;;;;16.90;2.47;;;;;;;;;;5085757;28;20110;-61
2022/01/09 06:21:36;;;;;;;16.48;1.88;;;;;;;;;;5086494;28;20478;-60
2022/01/09 06:24:02;;;;;;;15.88;1.77;;;;;;;;;;5085821;28;20507;-61
2022/01/09 06:26:28;;;;;;;11.40;1.65;;;;;;;;;;5087208;28;20289;-62
2022/01/09 06:28:54;;;;;;;11.48;1.83;;;;;;;;;;5085791;28;20501;-61
2022/01/09 06:31:20;;;;;;;10.68;1.75;;;;;;;;;;5086585;28;20043;-59
2022/01/09 06:33:46;;;;;;;13.90;1.45;;;;;;;;;;5086872;28;20109;-61
2022/01/09 06:36:12;;;;;;;12.10;2.13;;;;;;;;;;5084718;28;20051;-61
2022/01/09 06:38:38;;;;;;;7.93;1.77;;;;;;;;;;5085385;28;20043;-60
2022/01/09 06:41:04;;;;;;;15.55;2.28;;;;;;;;;;5086479;28;20040;-60
2022/01/09 06:43:30;;;;;;;11.05;2.13;;;;;;;;;;5085437;28;20089;-60
2022/01/09 06:45:56;;;;;;;10.35;1.98;;;;;;;;;;5086875;28;20040;-60
2022/01/09 06:48:22;;;;;;;12.70;1.70;;;;;;;;;;5085768;28;20133;-60
2022/01/09 06:50:48;;;;;;;9.40;1.40;;;;;;;;;;5087719;28;20044;-60
2022/01/09 06:53:14;;;;;;;11.45;2.10;;;;;;;;;;5090171;28;20126;-59
2022/01/09 06:55:40;;;;;;;10.90;1.70;;;;;;;;;;5089764;28;20533;-61
2022/01/09 06:58:06;;;;;;;7.35;1.45;;;;;;;;;;5086355;28;20044;-60
2022/01/09 07:00:33;;;;;;;8.82;1.13;;;;;;;;;;5089313;28;20043;-60
2022/01/09 07:02:59;;;;;;;10.80;2.33;;;;;;;;;;5090029;28;20043;-59
2022/01/09 07:05:25;;;;;;;9.63;1.50;;;;;;;;;;5089973;28;20060;-59
2022/01/09 07:07:51;;;;;;;9.90;1.23;;;;;;;;;;5088835;28;20520;-60
2022/01/09 07:10:17;;;;;;;10.13;2.15;;;;;;;;;;5088850;28;20047;-60
2022/01/09 07:12:43;;;;;;;6.90;1.13;;;;;;;;;;5088481;28;20048;-60
2022/01/09 07:15:09;;;;;;;5.07;1.10;;;;;;;;;;5087460;28;20111;-60
2022/01/09 07:17:35;;;;;;;7.22;1.13;;;;;;;;;;5088478;28;20044;-60
2022/01/09 07:20:01;;;;;;;10.88;1.40;;;;;;;;;;5089192;28;20040;-59
2022/01/09 07:22:27;;;;;;;11.48;1.60;;;;;;;;;;5088628;28;20040;-60
2022/01/09 07:24:53;;;;;;;7.60;1.27;;;;;;;;;;5088626;28;20032;-60
2022/01/09 07:27:20;;;;;;;9.18;1.35;;;;;;;;;;5089363;28;20501;-60
2022/01/09 07:29:46;;;;;;;9.98;1.40;;;;;;;;;;5088894;28;20379;-60
2022/01/09 07:32:12;;;;;;;12.02;1.48;;;;;;;;;;5089398;28;20471;-60
2022/01/09 07:34:38;;;;;;;7.43;1.50;;;;;;;;;;5085888;28;20540;-59
2022/01/09 07:37:04;;;;;;;9.57;1.50;;;;;;;;;;5088637;28;20052;-61
2022/01/09 07:39:30;;;;;;;10.48;1.63;;;;;;;;;;5087340;28;20528;-58
2022/01/09 07:41:57;;;;;;;16.45;2.55;;;;;;;;;;5083115;28;20047;-60
2022/01/09 07:44:24;;;;;;;14.57;2.00;;;;;;;;;;5084504;28;20063;-60
2022/01/09 07:46:50;;;;;;;9.65;1.50;;;;;;;;;;5085621;28;20035;-62
2022/01/09 07:49:16;;;;;;;14.77;1.30;;;;;;;;;;5084361;28;20363;-61
2022/01/09 07:51:42;;;;;;;7.00;1.00;;;;;;;;;;5086535;28;20488;-60
2022/01/09 07:54:08;;;;;;;7.25;1.30;;;;;;;;;;5087858;28;20154;-61
2022/01/09 07:56:34;;;;;;;6.97;1.08;;;;;;;;;;5086629;28;20184;-60
2022/01/09 07:59:00;;;;;;;9.27;1.40;;;;;;;;;;5084717;28;20035;-60
2022/01/09 08:01:26;;;;;;;9.32;1.35;;;;;;;;;;5086472;28;20032;-59
2022/01/09 08:03:52;;;;;;;8.18;1.30;;;;;;;;;;5087471;28;20557;-61
2022/01/09 08:06:18;;;;;;;8.38;1.63;;;;;;;;;;5087084;28;20402;-60
2022/01/09 08:08:44;;;;;;;11.45;1.15;;;;;;;;;;5087878;28;20028;-62
2022/01/09 08:11:10;;;;;;;7.07;1.15;;;;;;;;;;5087704;28;20050;-61
2022/01/09 08:13:36;;;;;;;6.20;1.80;;;;;;;;;;5088585;28;20075;-60
2022/01/09 08:16:02;;;;;;;7.60;1.05;;;;;;;;;;5088668;28;20107;-61
2022/01/09 08:18:28;;;;;;;6.82;1.45;;;;;;;;;;5088470;28;20124;-60
2022/01/09 08:20:54;;;;;;;6.70;1.45;;;;;;;;;;5087846;28;20062;-61
2022/01/09 08:23:20;;;;;;;6.35;1.15;;;;;;;;;;5088283;28;20032;-61
2022/01/09 08:25:46;;;;;;;9.18;1.25;;;;;;;;;;5087792;28;20066;-61
2022/01/09 08:28:12;;;;;;;9.45;1.42;;;;;;;;;;5087307;28;20079;-59
2022/01/09 08:30:38;;;;;;;11.68;1.40;;;;;;;;;;5088318;28;20465;-61
2022/01/09 08:33:04;;;;;;;11.88;1.90;;;;;;;;;;5087846;28;20043;-61
2022/01/09 08:42:12;;;;;;;12.63;1.17;;;;;;;;;;5030423;28;20084;-61
2022/01/09 08:44:38;;;;;;;12.27;1.70;;;;;;;;;;5036115;28;20099;-61
2022/01/09 08:47:04;;;;;;;12.13;1.58;;;;;;;;;;5025521;28;20213;-61
2022/01/09 08:49:31;;;;;;;14.32;2.05;;;;;;;;;;5029243;28;20871;-61
2022/01/09 08:51:57;;;;;;;9.40;1.73;;;;;;;;;;5025673;28;20511;-61
2022/01/09 08:54:23;;;;;;;11.30;1.50;;;;;;;;;;5024148;28;20156;-62
2022/01/09 08:56:49;;;;;;;10.00;1.92;;;;;;;;;;5023975;28;20049;-62
2022/01/09 08:59:15;;;;;;;11.52;1.65;;;;;;;;;;5024155;28;20038;-60
2022/01/09 09:01:41;;;;;;;12.30;2.30;;;;;;;;;;5025205;28;20042;-61
2022/01/09 09:04:07;;;;;;;11.75;1.92;;;;;;;;;;5024693;28;20033;-61
2022/01/09 09:06:33;;;;;;;20.08;2.47;;;;;;;;;;5026307;28;20069;-61
2022/01/09 09:08:59;;;;;;;11.07;1.45;;;;;;;;;;5024174;28;20535;-60
2022/01/09 09:11:25;;;;;;;14.52;1.92;;;;;;;;;;5022553;28;20459;-61
2022/01/09 09:13:51;;;;;;;9.55;1.38;;;;;;;;;;5023314;28;20077;-60
2022/01/09 09:16:17;;;;;;;7.00;1.60;;;;;;;;;;5073111;28;20099;-60
2022/01/09 09:18:44;;;;;;;11.95;1.67;;;;;;;;;;5085873;28;20044;-60
2022/01/09 09:21:10;;;;;;;15.18;1.83;;;;;;;;;;5087346;28;20036;-61
2022/01/09 09:23:36;;;;;;;18.23;2.22;;;;;;;;;;5087201;28;20031;-60
2022/01/09 09:26:02;;;;;;;11.65;1.85;;;;;;;;;;5087516;28;20115;-60
2022/01/09 09:28:28;;;;;;;13.23;2.08;;;;;;;;;;5086896;28;20544;-61
2022/01/09 09:30:54;;;;;;;12.50;1.50;;;;;;;;;;5087300;28;20059;-62
2022/01/09 09:33:20;;;;;;;15.95;2.63;;;;;;;;;;5087237;28;20111;-61
2022/01/09 09:35:46;;;;;;;8.90;1.40;;;;;;;;;;5086752;28;20566;-61
2022/01/09 09:38:12;;;;;;;8.90;1.33;;;;;;;;;;5087497;28;20398;-61
2022/01/09 09:40:40;;;;;;;12.50;1.77;;;;;;;;;;5087499;28;20036;-60
2022/01/09 09:43:06;;;;;;;5.78;1.40;;;;;;;;;;5088089;28;20402;-63
2022/01/09 09:45:32;;;;;;;6.20;1.60;;;;;;;;;;5085708;28;20044;-60
2022/01/09 09:47:58;;;;;;;11.10;1.38;;;;;;;;;;5086144;28;20689;-59
2022/01/09 09:50:24;;;;;;;8.65;1.50;;;;;;;;;;5084137;28;20028;-59
2022/01/09 09:52:50;;;;;;;7.35;1.20;;;;;;;;;;5085879;28;20035;-60
2022/01/09 09:55:17;;;;;;;9.32;1.75;;;;;;;;;;5086535;28;20039;-59
2022/01/09 09:57:43;;;;;;;14.88;2.95;;;;;;;;;;5086247;28;20040;-60
2022/01/09 10:00:09;;;;;;;12.95;2.17;;;;;;;;;;5086614;28;20150;-59
2022/01/09 10:02:41;;;;;;;10.10;2.05;;;;;;;;;;5086276;28;20036;-60
2022/01/09 10:05:08;;;;;;;11.95;1.77;;;;;;;;;;5087408;28;20086;-60
2022/01/09 10:07:34;;;;;;;15.60;1.88;;;;;;;;;;5086004;28;20047;-61
2022/01/09 10:10:01;;;;;;;13.95;1.75;;;;;;;;;;5087185;28;20089;-60
2022/01/09 10:12:28;;;;;;;20.48;4.05;;;;;;;;;;5086293;28;20480;-60
2022/01/09 10:14:56;;;;;;;12.50;2.10;;;;;;;;;;5087051;28;20071;-59
2022/01/09 10:17:24;;;;;;;19.00;2.70;;;;;;;;;;5086720;28;20052;-60
2022/01/09 10:19:50;;;;;;;13.30;2.42;;;;;;;;;;5086078;28;20136;-59
2022/01/09 10:22:33;;;;;;;20.50;3.13;;;;;;;;;;5085304;28;20253;-59
2022/01/09 10:25:15;;;;;;;13.13;2.65;;;;;;;;;;5087760;28;20043;-59
2022/01/09 10:27:41;;;;;;;11.75;2.20;;;;;;;;;;5090387;28;20036;-59
2022/01/09 10:30:08;;;;;;;12.65;1.80;;;;;;;;;;5090776;28;20058;-59
2022/01/09 10:32:34;;;;;;;9.45;1.67;;;;;;;;;;5090806;28;20043;-59
2022/01/09 10:35:14;;;;;;;12.77;2.17;;;;;;;;;;5091258;28;20055;-59
2022/01/09 10:37:42;;;;;;;11.88;2.00;;;;;;;;;;5091404;28;20040;-61
2022/01/09 10:40:09;;;;;;;12.88;1.90;;;;;;;;;;5090788;28;20836;-59
2022/01/09 10:42:36;;;;;;;10.68;1.77;;;;;;;;;;5090985;28;20039;-60
2022/01/09 10:45:22;;;;;;;15.00;2.08;;;;;;;;;;5090650;28;20032;-59
2022/01/09 10:47:48;;;;;;;18.70;2.70;;;;;;;;;;5090736;28;20051;-59
2022/01/09 10:50:27;;;;;;;15.98;2.55;;;;;;;;;;5090521;28;20119;-60
2022/01/09 10:53:11;;;;;;;11.38;2.40;;;;;;;;;;5090396;28;20391;-60
2022/01/09 10:55:37;;;;;;;10.23;1.80;;;;;;;;;;5089868;28;20032;-61
2022/01/09 10:58:15;;;;;;;12.65;1.88;;;;;;;;;;5090069;28;20044;-60
2022/01/09 11:00:41;;;;;;;16.48;2.40;;;;;;;;;;5090719;28;20080;-59
2022/01/09 11:03:07;;;;;;;11.48;2.58;;;;;;;;;;5090290;28;20097;-60
2022/01/09 11:05:35;;;;;;;12.10;1.83;;;;;;;;;;5090363;28;20044;-59
2022/01/09 11:08:01;;;;;;;12.95;1.83;;;;;;;;;;5090123;28;20028;-59
2022/01/09 11:10:29;;;;;;;9.60;1.85;;;;;;;;;;5090484;28;20028;-60
2022/01/09 11:12:58;;;;;;;12.40;2.10;;;;;;;;;;5089618;28;20048;-59
2022/01/09 11:15:28;;;;;;;15.63;2.05;;;;;;;;;;5089347;28;20032;-60
2022/01/09 11:17:56;;;;;;;11.68;2.22;;;;;;;;;;5088791;28;20111;-60
2022/01/09 11:20:22;;;;;;;12.40;1.48;;;;;;;;;;5090028;28;20046;-61
2022/01/09 11:22:49;;;;;;;13.88;2.53;;;;;;;;;;5089813;28;20067;-60
2022/01/09 11:25:24;;;;;;;11.23;2.70;;;;;;;;;;5089416;28;20433;-60
2022/01/09 11:27:53;;;;;;;7.10;1.30;;;;;;;;;;5089146;28;20043;-60
2022/01/09 11:30:58;;;;;;;16.02;2.10;;;6.70;99.90;;;;;;5088729;28;20040;-60
2022/01/09 11:33:33;;;;;;;10.00;1.63;;;;;;;;;;5089725;28;20051;-58
2022/01/09 11:36:04;;;;;;;17.38;2.17;;;;;;;;;;5086207;28;20091;-59
2022/01/09 11:38:45;;;;;;;12.18;1.60;;;;;;;;;;5090365;28;20494;-59
2022/01/09 11:41:19;;;;;;;15.73;2.35;;;;;;;;;;5084388;28;20052;-59
2022/01/09 11:43:53;;;;;;;13.02;2.03;;;;;;;;;;5089055;28;20058;-60
2022/01/09 11:46:19;;;;;;;14.30;2.03;;;;;;;;;;5088081;28;20040;-60
2022/01/09 11:48:51;;;;;;;12.02;2.10;;;;;;;;;;5090085;28;20036;-60
2022/01/09 11:51:28;;;;;;;11.90;1.67;;;;;;;;;;5087812;28;20105;-59
2022/01/09 11:53:54;;;;;;;12.60;1.70;;;;;;;;;;5089641;28;20119;-60
2022/01/09 11:56:43;;;;;;;16.63;1.88;;;;;;;;;;5089672;28;20135;-60
2022/01/09 11:59:19;;;;;;;13.90;1.90;;;;;;;;;;5087987;28;20044;-60
2022/01/09 12:01:49;;;;;;;8.05;2.00;;;;;;;;;;5089500;28;20093;-61
2022/01/09 12:04:48;;;;;;;11.95;2.25;;;;;;;;;;5087731;28;20513;-60
2022/01/09 12:07:32;;;;;;;11.90;2.30;;;;;;;;;;5089450;28;20039;-61
2022/01/09 12:09:58;;;;;;;14.50;1.73;;;;;;;;;;5089018;28;20032;-59
2022/01/09 12:12:34;;;;;;;12.48;2.20;;;;;;;;;;5089414;28;20085;-60
2022/01/09 12:15:04;;;;;;;15.27;2.38;;;;;;;;;;5088669;28;20075;-60
2022/01/09 12:17:40;;;;;;;15.38;2.78;;;;;;;;;;5088994;28;20076;-59
2022/01/09 12:20:10;;;;;;;9.23;1.55;;;;;;;;;;5089443;28;20035;-59
2022/01/09 12:22:53;;;;;;;8.93;1.48;;;;;;;;;;5089004;28;20036;-60
2022/01/09 12:25:25;;;;;;;8.65;1.60;;;;;;;;;;5089313;28;20048;-59
2022/01/09 12:28:08;;;;;;;7.00;1.73;;;;;;;;;;5088009;28;20409;-59
2022/01/09 12:33:09;;;;;;;6.90;1.08;;;;;;;;;;5089032;28;20131;-60
2022/01/09 12:35:36;;;;;;;8.20;1.60;;;;;;;;;;5087613;28;20048;-59
2022/01/09 12:38:02;;;;;;;7.95;1.10;;;;;;;;;;5087186;28;20494;-60
2022/01/09 12:40:30;;;;;;;13.68;1.48;;;;;;;;;;5089202;28;20123;-61
2022/01/09 12:42:57;;;;;;;9.43;1.77;;;;;;;;;;5088686;28;20032;-59
2022/01/09 12:45:28;;;;;;;8.05;1.35;;;;;;;;;;5088611;28;20123;-59
2022/01/09 12:47:57;;;;;;;11.98;1.27;;;;;;;;;;5088516;28;20044;-61
2022/01/09 12:50:31;;;;;;;8.35;1.75;;;;;;;;;;5088823;28;20032;-60
2022/01/09 12:53:16;;;;;;;6.43;1.17;;;;;;;;;;5088978;28;20115;-60
2022/01/09 12:56:01;;;;;;;8.23;1.58;;;6.60;99.90;;;;;;5088135;28;20177;-60
2022/01/09 12:58:33;;;;;;;8.15;1.83;;;;;;;;;;5087990;28;20032;-60
2022/01/09 13:01:01;;;;;;;12.30;1.73;;;;;;;;;;5087411;28;20044;-61
2022/01/09 13:03:31;;;;;;;10.25;1.50;;;;;;;;;;5086735;28;20036;-59
2022/01/09 13:05:58;;;;;;;9.18;1.67;;;;;;;;;;5086285;28;20076;-59
2022/01/09 13:08:24;;;;;;;12.98;2.40;;;;;;;;;;5087616;28;20036;-60
2022/01/09 13:10:58;;;;;;;15.18;2.15;;;;;;;;;;5087242;28;20039;-59
2022/01/09 13:13:24;;;;;;;7.13;1.40;;;;;;;;;;5087542;28;20039;-60
2022/01/09 13:15:51;;;;;;;9.40;2.38;;;;;;;;;;5087528;28;20129;-60
2022/01/09 13:18:17;;;;;;;13.38;1.77;;;;;;;;;;5087316;28;20363;-60
2022/01/09 13:20:43;;;;;;;11.82;2.22;;;;;;;;;;5087736;28;20040;-60
2022/01/09 13:23:10;;;;;;;6.32;1.13;;;;;;;;;;5085780;28;20051;-60
2022/01/09 13:25:46;;;;;;;4.80;1.10;;;;;;;;;;5087851;28;20032;-60
2022/01/09 13:28:22;;;;;;;6.53;1.20;;;;;;;;;;5087292;28;20093;-60
2022/01/09 13:30:49;;;;;;;4.30;1.00;;;;;;;;;;5085393;28;20040;-59
2022/01/09 13:33:15;;;;;;;6.18;1.00;;;;;;;;;;5085791;28;20040;-60
2022/01/09 13:35:42;;;;;;;5.07;1.08;;;;;;;;;;5087157;28;20060;-60
2022/01/09 13:38:08;;;;;;;4.65;1.08;;;;;;;;;;5088100;28;20105;-61
2022/01/09 13:40:34;;;;;;;6.07;1.08;;;;;;;;;;5087228;28;20036;-59
2022/01/09 13:43:01;;;;;;;7.07;1.10;;;;;;;;;;5087847;28;20043;-60
2022/01/09 13:45:27;;;;;;;8.18;1.10;;;;;;;;;;5086463;28;20039;-59
2022/01/09 13:47:56;;;;;;;4.53;0.73;;;;;;;;;;5087165;28;20478;-61
2022/01/09 13:50:23;;;;;;;6.45;1.10;;;;;;;;;;5086553;28;20040;-60
2022/01/09 13:52:50;;;;;;;8.55;1.08;;;;;;;;;;5087173;28;20474;-61
2022/01/09 13:55:22;;;;;;;9.98;1.45;;;;;;;;;;5087247;28;20048;-61
2022/01/09 13:57:55;;;;;;;6.38;1.63;;;;;;;;;;5086632;28;20036;-61
2022/01/09 14:00:24;;;;;;;8.60;1.65;;;;;;;;;;5090170;28;20048;-60
2022/01/09 14:02:51;;;;;;;10.05;1.10;;;;;;;;;;5091666;28;20047;-61
2022/01/09 14:05:18;;;;;;;5.95;0.93;;;;;;;;;;5091694;28;20044;-61
2022/01/09 14:07:47;;;;;;;6.20;1.50;;;;;;;;;;5091341;28;20047;-60
2022/01/09 14:10:13;;;;;;;11.68;1.45;;;;;;;;;;5092010;28;20040;-60
2022/01/09 14:12:39;;;;;;;6.40;1.10;;;;;;;;;;5091543;28;20188;-60
2022/01/09 14:15:19;;;;;;;11.55;2.13;;;;;;;;;;5090769;28;20039;-61
2022/01/09 14:17:46;;;;;;;9.52;1.70;;;;;;;;;;5089283;28;20109;-60
2022/01/09 14:20:26;;;;;;;14.40;1.70;;;;;;;;;;5091380;28;20043;-61
2022/01/09 14:22:53;;;;;;;11.02;1.65;;;;;;;;;;5090732;28;20046;-60
2022/01/09 14:25:25;;;;;;;10.18;1.42;;;;;;;;;;5090890;28;20044;-61
2022/01/09 14:27:52;;;;;;;10.68;1.52;;;;;;;;;;5089431;28;20413;-61
2022/01/09 14:30:21;;;;;;;4.78;1.33;;;;;;;;;;5090131;28;20481;-60
2022/01/09 14:32:49;;;;;;;9.55;1.30;;;;;;;;;;5090379;28;20044;-60
2022/01/09 14:35:30;;;;;;;5.82;1.10;;;;;;;;;;5089687;28;20064;-61
2022/01/09 14:38:00;;;;;;;9.23;1.40;;;;;;;;;;5089558;28;20051;-60
2022/01/09 14:40:27;;;;;;;10.40;1.92;;;;;;;;;;5089364;28;20039;-60
2022/01/09 14:42:53;;;;;;;16.08;2.72;;;;;;;;;;5089723;28;20402;-61
2022/01/09 14:45:19;;;;;;;11.52;2.25;;;;;;;;;;5090081;28;20435;-60
2022/01/09 14:47:45;;;;;;;13.05;1.95;;;;;;;;;;5089870;28;20046;-59
2022/01/09 14:50:11;;;;;;;7.00;1.10;;;;;;;;;;5090755;28;20418;-60